Time;durP1;ratioP1;P1;durP2;ratioP2;P2;SDS_P1;SDS_P2;PMS_P1;PMS_P2;Temp;Humidity;BMP_temperature;BMP_pressure;BME280_temperature;BME280_humidity;BME280_pressure;Samples;Min_cycle;Max_cycle;Signal;HPM_P1;HPM_P2
2023/07/13 00:02:19;;;;;;;7.97;7.23;;;;;;;17.86;100.00;96843.19;5010455;28;20208;-66
2023/07/13 00:04:47;;;;;;;8.43;7.17;;;;;;;17.88;100.00;96844.56;5012304;28;20302;-65
2023/07/13 00:07:19;;;;;;;7.33;6.63;;;;;;;17.90;100.00;96836.28;5014568;28;20294;-65
2023/07/13 00:09:47;;;;;;;8.73;7.93;;;;;;;17.84;100.00;96821.97;5014130;28;20312;-62
2023/07/13 00:12:26;;;;;;;7.73;7.00;;;;;;;17.80;100.00;96826.19;5011670;28;20203;-63
2023/07/13 00:14:54;;;;;;;7.07;6.43;;;;;;;17.71;100.00;96833.78;5011861;28;20303;-62
2023/07/13 00:17:21;;;;;;;6.83;6.30;;;;;;;17.61;100.00;96841.63;5016488;28;20259;-63
2023/07/13 00:19:49;;;;;;;7.33;6.60;;;;;;;17.66;100.00;96847.06;5011954;28;20251;-62
2023/07/13 00:22:18;;;;;;;6.40;6.00;;;;;;;17.74;100.00;96856.63;5011065;28;20661;-65
2023/07/13 00:24:46;;;;;;;7.87;7.10;;;;;;;17.70;100.00;96853.59;5011440;28;20228;-63
2023/07/13 00:27:16;;;;;;;6.77;6.00;;;;;;;17.72;100.00;96856.03;5016596;28;20193;-64
2023/07/13 00:29:44;;;;;;;7.27;6.67;;;;;;;17.71;100.00;96849.06;5012343;28;20731;-62
2023/07/13 00:32:12;;;;;;;9.63;6.47;;;;;;;17.68;100.00;96838.81;5017854;28;20295;-64
2023/07/13 00:34:40;;;;;;;6.83;6.23;;;;;;;17.69;100.00;96843.91;5015214;28;20227;-64
2023/07/13 00:37:08;;;;;;;7.40;6.47;;;;;;;17.66;100.00;96844.41;5013861;28;20311;-62
2023/07/13 00:39:37;;;;;;;7.13;6.60;;;;;;;17.72;100.00;96839.97;5018566;28;20212;-65
2023/07/13 00:42:05;;;;;;;9.87;7.23;;;;;;;17.68;100.00;96836.13;5016052;28;20294;-61
2023/07/13 00:44:33;;;;;;;7.37;6.67;;;;;;;17.72;100.00;96830.03;5020204;28;20228;-62
2023/07/13 00:47:01;;;;;;;8.17;6.30;;;;;;;17.70;100.00;96820.63;5016069;28;20251;-63
2023/07/13 00:49:30;;;;;;;8.90;6.23;;;;;;;17.71;100.00;96816.91;5014329;28;20816;-67
2023/07/13 00:52:02;;;;;;;6.70;6.07;;;;;;;17.74;100.00;96827.94;5018802;28;20921;-63
2023/07/13 00:54:31;;;;;;;8.70;7.17;;;;;;;17.69;100.00;96835.88;5014105;28;20290;-62
2023/07/13 00:57:04;;;;;;;7.73;6.53;;;;;;;17.62;100.00;96829.84;5013922;28;20304;-65
2023/07/13 00:59:32;;;;;;;8.27;5.67;;;;;;;17.55;100.00;96834.53;5014736;28;20294;-63
2023/07/13 01:02:00;;;;;;;7.77;6.90;;;;;;;17.54;100.00;96841.75;5017808;28;20231;-63
2023/07/13 01:04:28;;;;;;;7.60;6.63;;;;;;;17.60;100.00;96837.31;5016204;28;20297;-65
2023/07/13 01:06:56;;;;;;;6.43;5.90;;;;;;;17.63;100.00;96843.03;5019142;28;20199;-63
2023/07/13 01:09:24;;;;;;;8.50;6.73;;;;;;;17.63;100.00;96835.00;5015519;28;20224;-63
2023/07/13 01:11:51;;;;;;;8.33;6.73;;;;;;;17.61;100.00;96834.38;5016407;28;20219;-65
2023/07/13 01:14:20;;;;;;;10.20;6.43;;;;;;;17.61;100.00;96831.72;5016935;28;20712;-63
2023/07/13 01:16:48;;;;;;;7.20;6.30;;;;;;;17.61;100.00;96836.25;5015627;28;20208;-64
2023/07/13 01:19:25;;;;;;;8.03;6.30;;;;;;;17.58;100.00;96834.88;5016795;28;20288;-66
2023/07/13 01:21:54;;;;;;;6.73;6.13;;;;;;;17.56;100.00;96836.97;5015563;28;20234;-62
2023/07/13 01:24:22;;;;;;;6.23;5.63;;;;;;;17.52;100.00;96835.81;5019096;28;20225;-62
2023/07/13 01:26:49;;;;;;;7.30;5.70;;;;;;;17.49;100.00;96837.13;5018659;28;20223;-66
2023/07/13 01:29:17;;;;;;;7.97;6.33;;;;;;;17.42;100.00;96843.66;5018999;28;20309;-62
2023/07/13 01:31:45;;;;;;;6.57;6.07;;;;;;;17.42;100.00;96841.78;5017729;28;20227;-65
2023/07/13 01:34:13;;;;;;;7.13;6.37;;;;;;;17.41;100.00;96840.16;5016723;28;20228;-64
2023/07/13 01:36:40;;;;;;;6.80;6.00;;;;;;;17.41;100.00;96844.69;5013643;28;20291;-63
2023/07/13 01:39:09;;;;;;;7.60;5.93;;;;;;;17.39;100.00;96839.56;5015285;28;20209;-64
2023/07/13 01:41:37;;;;;;;6.63;6.10;;;;;;;17.36;100.00;96846.22;5012434;28;20641;-63
2023/07/13 01:44:05;;;;;;;6.53;5.80;;;;;;;17.29;100.00;96842.88;5015276;28;20318;-64
2023/07/13 01:46:33;;;;;;;6.90;6.00;;;;;;;17.22;100.00;96831.44;5017636;28;20637;-62
2023/07/13 01:49:00;;;;;;;7.30;6.10;;;;;;;17.26;100.00;96834.47;5014998;28;20571;-64
2023/07/13 01:51:28;;;;;;;6.60;6.00;;;;;;;17.24;100.00;96831.22;5012450;28;20319;-63
2023/07/13 01:53:56;;;;;;;8.57;5.87;;;;;;;17.13;100.00;96828.34;5015101;28;20206;-62
2023/07/13 01:56:24;;;;;;;6.90;5.93;;;;;;;17.07;100.00;96819.38;5016498;28;20204;-63
2023/07/13 01:58:53;;;;;;;10.77;5.63;;;;;;;17.04;100.00;96827.06;5015248;28;20295;-64
2023/07/13 02:01:20;;;;;;;9.23;6.23;;;;;;;17.02;100.00;96824.63;5017445;28;20236;-65
2023/07/13 02:03:48;;;;;;;8.50;6.17;;;;;;;16.96;100.00;96822.03;5014366;28;20205;-63
2023/07/13 02:06:15;;;;;;;7.47;6.13;;;;;;;16.92;100.00;96824.38;5017821;28;20247;-64
2023/07/13 02:08:43;;;;;;;6.47;5.63;;;;;;;16.88;100.00;96815.19;5017462;28;20295;-63
2023/07/13 02:11:11;;;;;;;8.67;6.50;;;;;;;16.88;100.00;96825.91;5015477;28;20700;-64
2023/07/13 02:13:40;;;;;;;8.07;6.50;;;;;;;16.84;100.00;96822.03;5012012;28;20200;-65
2023/07/13 02:16:07;;;;;;;6.97;6.30;;;;;;;16.79;100.00;96818.19;5016229;28;20666;-66
2023/07/13 02:18:36;;;;;;;10.90;5.90;;;;;;;16.79;100.00;96818.19;5012402;28;20208;-64
2023/07/13 02:21:03;;;;;;;10.77;6.00;;;;;;;16.76;100.00;96823.22;5010401;28;20273;-66
2023/07/13 02:23:31;;;;;;;6.97;6.23;;;;;;;16.69;100.00;96826.00;5009211;28;20311;-62
2023/07/13 02:26:02;;;;;;;10.20;6.63;;;;;;;16.67;100.00;96827.25;5014151;28;20311;-64
2023/07/13 02:28:30;;;;;;;9.53;6.23;;;;;;;16.58;100.00;96821.47;5013322;28;20860;-66
2023/07/13 02:31:06;;;;;;;6.73;6.13;;;;;;;16.54;100.00;96821.09;5014311;28;20255;-63
2023/07/13 02:33:34;;;;;;;10.97;6.53;;;;;;;16.49;100.00;96818.31;5017125;28;20213;-63
2023/07/13 02:36:02;;;;;;;10.60;6.50;;;;;;;16.43;100.00;96830.72;5013612;28;20251;-65
2023/07/13 02:38:29;;;;;;;7.30;6.60;;;;;;;16.43;100.00;96838.75;5013794;28;20216;-67
2023/07/13 02:40:57;;;;;;;7.17;6.47;;;;;;;16.40;100.00;96846.44;5012344;28;20668;-61
2023/07/13 02:43:24;;;;;;;9.60;5.83;;;;;;;16.35;100.00;96844.44;5017924;28;20203;-65
2023/07/13 02:45:52;;;;;;;7.70;6.23;;;;;;;16.37;100.00;96858.38;5012981;28;20281;-63
2023/07/13 02:48:21;;;;;;;7.23;6.53;;;;;;;16.31;100.00;96862.81;5015129;28;20299;-62
2023/07/13 02:50:48;;;;;;;7.17;6.57;;;;;;;16.27;100.00;96860.81;5016471;28;20228;-62
2023/07/13 02:53:16;;;;;;;7.80;6.47;;;;;;;16.24;100.00;96853.25;5016783;28;20303;-63
2023/07/13 02:55:47;;;;;;;7.57;6.87;;;;;;;16.16;100.00;96855.22;5010286;28;20310;-61
2023/07/13 02:58:16;;;;;;;8.67;6.73;;;;;;;16.15;100.00;96858.94;5017513;28;20224;-64
2023/07/13 03:00:46;;;;;;;7.90;6.40;;;;;;;16.01;100.00;96850.28;5012981;28;20211;-61
2023/07/13 03:03:14;;;;;;;7.77;6.67;;;;;;;16.01;100.00;96852.13;5015859;28;20208;-63
2023/07/13 03:05:50;;;;;;;6.97;6.37;;;;;;;15.99;100.00;96856.88;5011425;28;20978;-63
2023/07/13 03:08:18;;;;;;;7.70;6.60;;;;;;;15.91;100.00;96858.84;5014313;28;20208;-64
2023/07/13 03:10:46;;;;;;;7.23;6.53;;;;;;;15.96;100.00;96868.03;5012613;28;20343;-64
2023/07/13 03:13:14;;;;;;;7.93;6.40;;;;;;;15.96;100.00;96857.34;5011469;28;20205;-62
2023/07/13 03:15:41;;;;;;;7.80;7.20;;;;;;;15.97;100.00;96861.63;5014492;28;20222;-62
2023/07/13 03:18:09;;;;;;;10.10;6.60;;;;;;;15.91;100.00;96864.19;5009635;28;20220;-61
2023/07/13 03:20:36;;;;;;;7.10;6.47;;;;;;;15.89;100.00;96868.94;5012490;28;20201;-64
2023/07/13 03:23:05;;;;;;;7.60;6.90;;;;;;;15.86;100.00;96884.56;5011841;28;20772;-64
2023/07/13 03:25:33;;;;;;;7.40;6.73;;;;;;;15.84;100.00;96878.63;5015464;28;20251;-65
2023/07/13 03:28:01;;;;;;;9.30;6.70;;;;;;;15.85;100.00;96875.75;5014574;28;20202;-64
2023/07/13 03:30:28;;;;;;;12.40;6.63;;;;;;;15.79;100.00;96884.66;5015213;28;20228;-64
2023/07/13 03:32:56;;;;;;;10.87;6.83;;;;;;;15.81;100.00;96887.09;5014977;28;20200;-64
2023/07/13 03:35:23;;;;;;;10.27;6.57;;;;;;;15.80;100.00;96885.44;5009838;28;20232;-65
2023/07/13 03:37:51;;;;;;;8.40;7.30;;;;;;;15.76;100.00;96890.44;5007443;28;21451;-64
2023/07/13 03:40:20;;;;;;;10.27;7.20;;;;;;;15.80;100.00;96888.13;5014849;28;20760;-64
2023/07/13 03:42:48;;;;;;;7.23;6.63;;;;;;;15.77;100.00;96897.41;5009057;28;20283;-67
2023/07/13 03:45:16;;;;;;;7.57;6.93;;;;;;;15.72;100.00;96892.75;5015319;28;20245;-64
2023/07/13 03:47:43;;;;;;;10.00;8.50;;;;;;;15.74;100.00;96900.53;5009368;28;20307;-64
2023/07/13 03:50:11;;;;;;;7.20;6.50;;;;;;;15.71;100.00;96903.63;5013586;28;20219;-64
2023/07/13 03:52:39;;;;;;;7.87;7.13;;;;;;;15.74;100.00;96908.56;5010194;28;20284;-63
2023/07/13 03:55:07;;;;;;;12.83;7.80;;;;;;;15.75;100.00;96910.19;5013214;28;20249;-66
2023/07/13 03:57:36;;;;;;;9.10;8.00;;;;;;;15.73;100.00;96910.41;5013998;28;20216;-64
2023/07/13 04:00:08;;;;;;;8.83;7.83;;;;;;;15.72;100.00;96915.94;5012750;28;20669;-66
2023/07/13 04:02:37;;;;;;;10.10;7.13;;;;;;;15.72;100.00;96914.09;5015116;28;20688;-65
2023/07/13 04:05:06;;;;;;;11.67;7.70;;;;;;;15.71;100.00;96917.81;5010708;28;20235;-64
2023/07/13 04:07:34;;;;;;;7.83;7.03;;;;;;;15.74;100.00;96919.25;5010371;28;20215;-63
2023/07/13 04:10:01;;;;;;;12.90;8.40;;;;;;;15.67;100.00;96919.31;5010668;28;20311;-64
2023/07/13 04:12:29;;;;;;;9.60;8.43;;;;;;;15.66;100.00;96928.34;5013472;28;20320;-65
2023/07/13 04:14:59;;;;;;;9.67;7.70;;;;;;;15.74;100.00;96925.38;5009846;28;20242;-65
2023/07/13 04:17:26;;;;;;;13.03;7.50;;;;;;;15.67;100.00;96905.94;5011566;28;20714;-65
2023/07/13 04:19:54;;;;;;;8.87;7.97;;;;;;;15.90;100.00;96924.00;5009250;28;20265;-63
2023/07/13 04:22:22;;;;;;;12.33;8.10;;;;;;;16.00;100.00;96926.13;5013550;28;20295;-66
2023/07/13 04:24:49;;;;;;;13.27;7.70;;;;;;;16.11;100.00;96921.88;5014820;28;20319;-63
2023/07/13 04:27:17;;;;;;;12.17;8.03;;;;;;;16.18;100.00;96913.75;5016344;28;20205;-63
2023/07/13 04:29:44;;;;;;;9.57;8.23;;;;;;;16.32;100.00;96915.22;5010243;28;20291;-67
2023/07/13 04:32:13;;;;;;;12.37;7.80;;;;;;;16.44;100.00;96914.44;5016239;28;20224;-63
2023/07/13 04:34:41;;;;;;;11.83;8.90;;;;;;;16.54;100.00;96921.91;5011604;28;20235;-63
2023/07/13 04:37:09;;;;;;;11.13;7.80;;;;;;;16.70;100.00;96912.41;5010180;28;20216;-64
2023/07/13 04:39:37;;;;;;;11.70;9.23;;;;;;;16.74;100.00;96922.41;5014508;28;20405;-64
2023/07/13 04:42:05;;;;;;;9.60;8.30;;;;;;;16.81;100.00;96927.66;5013065;28;20454;-64
2023/07/13 04:44:33;;;;;;;11.23;8.10;;;;;;;16.86;100.00;96927.78;5016282;28;20308;-64
2023/07/13 04:47:00;;;;;;;7.57;6.87;;;;;;;16.92;100.00;96928.72;5013221;28;20231;-64
2023/07/13 04:49:30;;;;;;;9.13;6.40;;;;;;;16.84;100.00;96923.69;5012890;28;20204;-64
2023/07/13 04:51:57;;;;;;;7.67;7.00;;;;;;;16.87;100.00;96917.91;5015513;28;20343;-64
2023/07/13 04:54:25;;;;;;;8.67;6.97;;;;;;;16.85;100.00;96918.13;5013732;28;20247;-63
2023/07/13 04:56:53;;;;;;;8.47;6.00;;;;;;;16.92;100.00;96905.44;5011302;28;20308;-64
2023/07/13 04:59:20;;;;;;;6.97;6.30;;;;;;;16.98;100.00;96902.91;5014686;28;20291;-65
2023/07/13 05:01:48;;;;;;;7.20;6.00;;;;;;;16.93;100.00;96901.72;5009666;28;20292;-66
2023/07/13 05:04:15;;;;;;;6.90;6.30;;;;;;;16.92;100.00;96904.66;5011879;28;20230;-64
2023/07/13 05:06:44;;;;;;;8.17;5.87;;;;;;;16.90;100.00;96906.75;5011189;28;20247;-64
2023/07/13 05:09:13;;;;;;;9.90;5.37;;;;;;;16.97;100.00;96888.72;5008452;28;20323;-64
2023/07/13 05:11:40;;;;;;;7.40;5.90;;;;;;;16.96;100.00;96891.59;5011534;28;20922;-65
2023/07/13 05:14:09;;;;;;;5.50;5.10;;;;;;;16.88;100.00;96901.63;5010683;28;20719;-64
2023/07/13 05:16:37;;;;;;;5.57;4.80;;;;;;;16.87;100.00;96896.50;5013551;28;20208;-64
2023/07/13 05:19:04;;;;;;;9.17;5.50;;;;;;;16.72;100.00;96903.09;5013553;28;20287;-66
2023/07/13 05:21:32;;;;;;;5.33;4.93;;;;;;;16.59;100.00;96903.31;5015462;28;20788;-63
2023/07/13 05:24:01;;;;;;;11.13;4.80;;;;;;;16.57;100.00;96916.09;5013216;28;21438;-64
2023/07/13 05:26:49;;;;;;;6.63;5.20;;;;;;;16.55;100.00;96919.00;5014422;28;20204;-62
2023/07/13 05:29:16;;;;;;;6.40;5.33;;;;;;;16.60;100.00;96915.66;5018454;28;20736;-62
2023/07/13 05:31:44;;;;;;;7.97;5.37;;;;;;;16.74;100.00;96917.06;5013388;28;20322;-64
2023/07/13 05:34:11;;;;;;;7.37;4.93;;;;;;;17.00;100.00;96916.88;5015380;28;20665;-64
2023/07/13 05:36:39;;;;;;;5.17;4.70;;;;;;;17.32;100.00;96908.50;5018252;28;20304;-64
2023/07/13 05:39:08;;;;;;;6.23;4.30;;;;;;;17.52;100.00;96910.00;5014509;28;20212;-63
2023/07/13 05:41:36;;;;;;;5.87;4.50;;;;;;;17.73;100.00;96900.53;5017397;28;20299;-65
2023/07/13 05:44:04;;;;;;;17.30;12.17;;;;;;;17.89;100.00;96907.00;5016996;28;20251;-64
2023/07/13 05:46:32;;;;;;;6.43;5.90;;;;;;;18.03;100.00;96902.22;5014936;28;20240;-65
2023/07/13 05:48:59;;;;;;;3.90;3.70;;;;;;;17.99;100.00;96906.38;5013620;28;20235;-65
2023/07/13 05:51:27;;;;;;;5.97;4.27;;;;;;;18.19;100.00;96909.50;5016981;28;20239;-68
2023/07/13 05:53:55;;;;;;;4.53;3.93;;;;;;;18.06;100.00;96905.22;5016090;28;20300;-66
2023/07/13 05:56:25;;;;;;;4.30;3.20;;;;;;;18.39;100.00;96907.41;5013516;28;20303;-65
2023/07/13 05:58:52;;;;;;;3.97;3.67;;;;;;;18.57;100.00;96903.72;5016042;28;20334;-65
2023/07/13 06:01:22;;;;;;;3.73;3.53;;;;;;;18.64;100.00;96905.19;5018115;28;20653;-64
2023/07/13 06:03:50;;;;;;;3.80;3.37;;;;;;;18.47;100.00;96886.38;5015045;28;20220;-65
2023/07/13 06:06:18;;;;;;;4.13;3.33;;;;;;;18.70;100.00;96892.66;5016758;28;20204;-64
2023/07/13 06:08:45;;;;;;;6.13;3.50;;;;;;;19.03;100.00;96899.09;5018545;28;20201;-67
2023/07/13 06:11:16;;;;;;;4.27;3.43;;;;;;;19.33;100.00;96905.19;5016372;28;20287;-66
2023/07/13 06:13:45;;;;;;;3.17;3.00;;;;;;;18.95;100.00;96910.22;5014213;28;20692;-65
2023/07/13 06:16:13;;;;;;;5.20;4.10;;;;;;;19.04;100.00;96902.63;5015646;28;20294;-65
2023/07/13 06:18:41;;;;;;;3.80;3.50;;;;;;;19.20;100.00;96901.78;5017598;28;20638;-65
2023/07/13 06:21:09;;;;;;;3.27;2.97;;;;;;;19.07;100.00;96905.59;5016825;28;20204;-64
2023/07/13 06:23:38;;;;;;;3.70;3.10;;;;;;;19.19;100.00;96897.47;5017225;28;20201;-64
2023/07/13 06:26:06;;;;;;;2.80;2.60;;;;;;;19.59;100.00;96894.75;5016053;28;20319;-66
2023/07/13 06:28:34;;;;;;;3.63;2.60;;;;;;;19.88;100.00;96903.44;5013562;28;20262;-66
2023/07/13 06:31:06;;;;;;;5.03;3.10;;;;;;;19.78;100.00;96906.84;5010740;28;20211;-66
2023/07/13 06:33:33;;;;;;;3.20;3.00;;;;;;;19.57;100.00;96907.63;5015562;28;20225;-65
2023/07/13 06:36:02;;;;;;;3.90;3.60;;;;;;;19.68;100.00;96906.69;5012162;28;20239;-66
2023/07/13 06:38:29;;;;;;;3.17;2.97;;;;;;;19.61;100.00;96911.44;5017476;28;20291;-65
2023/07/13 06:40:57;;;;;;;3.80;3.50;;;;;;;19.76;100.00;96914.34;5014679;28;20305;-66
2023/07/13 06:43:25;;;;;;;2.77;2.63;;;;;;;19.65;100.00;96918.78;5016096;28;20215;-67
2023/07/13 06:45:56;;;;;;;3.10;2.73;;;;;;;19.64;100.00;96922.53;5012971;28;20248;-63
2023/07/13 06:48:25;;;;;;;2.83;2.67;;;;;;;19.96;100.00;96923.72;5020308;28;20212;-67
2023/07/13 06:50:53;;;;;;;3.97;3.57;;;;;;;20.44;100.00;96917.78;5002310;28;20223;-64
2023/07/13 06:53:21;;;;;;;2.90;2.67;;;;;;;20.85;100.00;96920.06;5014862;28;20220;-65
2023/07/13 06:55:49;;;;;;;3.07;2.87;;;;;;;21.14;100.00;96920.53;5015796;28;20248;-64
2023/07/13 06:58:18;;;;;;;4.03;2.90;;;;;;;21.45;100.00;96917.25;5011594;28;20304;-65
2023/07/13 07:00:46;;;;;;;4.03;3.10;;;;;;;21.30;100.00;96917.97;5016913;28;20255;-64
2023/07/13 07:03:14;;;;;;;2.30;2.20;;;;;;;21.14;100.00;96917.06;5017935;28;21479;-64
2023/07/13 07:05:43;;;;;;;2.43;2.20;;;;;;;21.16;100.00;96914.91;5014524;28;20228;-67
2023/07/13 07:08:11;;;;;;;3.00;2.40;;;;;;;20.94;100.00;96918.50;5015369;28;20251;-66
2023/07/13 07:10:38;;;;;;;2.83;2.63;;;;;;;20.70;100.00;96918.84;5012735;28;20208;-66
2023/07/13 07:13:06;;;;;;;2.43;2.23;;;;;;;21.12;100.00;96925.38;5012870;28;20740;-65
2023/07/13 07:15:35;;;;;;;2.90;2.70;;;;;;;21.51;100.00;96935.06;5016719;28;20255;-65
2023/07/13 07:18:02;;;;;;;2.73;2.53;;;;;;;21.66;100.00;96920.91;5014504;28;20231;-64
2023/07/13 07:20:30;;;;;;;4.00;2.80;;;;;;;21.78;100.00;96921.47;4998571;28;20211;-64
2023/07/13 07:22:59;;;;;;;2.80;2.60;;;;;;;21.60;100.00;96925.41;5012253;28;20201;-64
2023/07/13 07:25:31;;;;;;;2.20;2.10;;;;;;;21.54;100.00;96923.75;5013766;28;20220;-66
2023/07/13 07:27:59;;;;;;;1.90;1.80;;;;;;;21.21;100.00;96941.88;5016666;28;20204;-65
2023/07/13 07:30:30;;;;;;;2.73;2.53;;;;;;;21.52;100.00;96934.00;5016780;28;20648;-67
2023/07/13 07:33:01;;;;;;;3.50;2.30;;;;;;;21.50;100.00;96938.84;5016287;28;20230;-66
2023/07/13 07:35:32;;;;;;;2.60;1.70;;;;;;;21.18;100.00;96935.13;5014275;28;20765;-65
2023/07/13 07:38:09;;;;;;;2.47;1.80;;;;;;;21.02;100.00;96941.47;5011951;28;20205;-66
2023/07/13 07:40:37;;;;;;;3.53;1.80;;;;;;;20.63;100.00;96948.66;5014342;28;20306;-64
2023/07/13 07:43:08;;;;;;;1.97;1.87;;;;;;;20.51;100.00;96953.38;5016300;28;20311;-66
2023/07/13 07:45:37;;;;;;;3.60;2.20;;;;;;;20.59;100.00;96955.63;5011576;28;20339;-66
2023/07/13 07:48:05;;;;;;;2.30;2.20;;;;;;;20.66;100.00;96958.13;5014463;28;20231;-68
2023/07/13 07:50:33;;;;;;;1.97;1.87;;;;;;;20.68;100.00;96959.47;5012428;28;20421;-66
2023/07/13 07:53:01;;;;;;;1.73;1.63;;;;;;;20.63;100.00;96962.09;5016661;28;20247;-66
2023/07/13 07:55:30;;;;;;;4.67;2.73;;;;;;;20.86;100.00;96954.00;5015955;28;20220;-64
2023/07/13 07:58:01;;;;;;;1.70;1.60;;;;;;;21.13;99.88;96961.22;5016969;28;20749;-66
2023/07/13 08:00:33;;;;;;;2.03;1.67;;;;;;;21.20;96.11;96959.91;5018487;28;20204;-65
2023/07/13 08:03:21;;;;;;;2.17;1.87;;;;;;;21.34;100.00;96968.38;5015883;28;20212;-64
2023/07/13 08:05:53;;;;;;;1.50;1.40;;;;;;;21.70;100.00;96965.13;5010231;28;20244;-65
2023/07/13 08:08:24;;;;;;;2.03;1.80;;;;;;;21.27;90.25;96966.97;5016621;28;20280;-65
2023/07/13 08:10:53;;;;;;;3.40;1.80;;;;;;;21.10;96.11;96970.63;5013579;28;20231;-65
2023/07/13 08:13:26;;;;;;;2.03;1.83;;;;;;;20.98;95.00;96972.69;5013095;28;20226;-64
2023/07/13 08:15:53;;;;;;;2.53;1.87;;;;;;;21.22;100.00;96971.28;5011549;28;20231;-63
2023/07/13 08:18:21;;;;;;;2.63;1.83;;;;;;;21.45;92.22;96976.53;5009760;28;20790;-64
2023/07/13 08:20:48;;;;;;;2.30;1.90;;;;;;;21.40;96.86;96980.81;5012702;28;20683;-64
2023/07/13 08:23:17;;;;;;;2.33;2.20;;;;;;;21.29;100.00;96983.69;5011591;28;20287;-65
2023/07/13 08:25:52;;;;;;;2.23;2.10;;;;;;;21.54;100.00;96969.59;5017929;28;20776;-66
2023/07/13 08:28:20;;;;;;;2.37;1.77;;;;;;;21.50;97.88;96971.19;5012600;28;20386;-61
2023/07/13 08:30:49;;;;;;;1.80;1.70;;;;;;;21.31;78.41;96990.44;5011556;28;20206;-62
2023/07/13 08:33:17;;;;;;;2.80;1.90;;;;;;;21.13;81.95;96996.25;5014152;28;20246;-63
2023/07/13 08:35:46;;;;;;;1.90;1.80;;;;;;;21.36;80.74;96992.38;5012323;28;21052;-64
2023/07/13 08:38:14;;;;;;;5.20;2.10;;;;;;;21.41;83.49;96992.41;5010428;28;20228;-63
2023/07/13 08:40:43;;;;;;;1.97;1.77;;;;;;;21.19;82.22;96998.69;5013655;28;20209;-65
2023/07/13 08:43:16;;;;;;;4.57;4.23;;;;;;;21.28;85.92;97004.44;5013535;28;20692;-62
2023/07/13 08:45:46;;;;;;;3.13;2.33;;;;;;;21.47;87.69;96998.66;5013971;28;20778;-68
2023/07/13 08:48:20;;;;;;;2.10;1.60;;;;;;;21.38;84.35;97001.81;5008146;28;20196;-66
2023/07/13 08:50:51;;;;;;;1.77;1.60;;;;;;;21.21;69.68;97001.16;5012190;28;20494;-64
2023/07/13 08:53:43;;;;;;;2.00;1.60;;;;;;;21.28;69.56;97009.81;5019207;28;20231;-63
2023/07/13 08:56:19;;;;;;;2.33;1.70;;;;;;;21.50;71.35;97017.78;5016136;28;20295;-62
2023/07/13 08:58:54;;;;;;;1.80;1.70;;;;;;;21.37;73.28;97008.25;5017747;28;20692;-63
2023/07/13 09:01:28;;;;;;;2.70;2.00;;;;;;;21.05;76.02;96997.50;5016583;28;20211;-65
2023/07/13 09:04:00;;;;;;;2.43;1.70;;;;;;;21.04;73.33;97012.03;5012556;28;20200;-65
2023/07/13 09:06:33;;;;;;;3.37;2.10;;;;;;;20.98;76.63;97027.34;5018864;28;20291;-65
2023/07/13 09:09:03;;;;;;;1.60;1.50;;;;;;;21.03;73.71;97021.19;5018204;28;20291;-69
2023/07/13 09:11:40;;;;;;;1.80;1.70;;;;;;;20.91;69.42;97021.34;5014204;28;20196;-69
2023/07/13 09:14:32;;;;;;;3.63;1.83;;;;;;;21.00;70.27;97024.41;5011361;28;20307;-63
2023/07/13 09:17:01;;;;;;;3.97;2.03;;;;;;;20.76;65.64;97022.81;5020853;28;20231;-65
2023/07/13 09:19:32;;;;;;;2.83;1.73;;;;;;;20.92;67.38;97022.97;5014544;28;20204;-65
2023/07/13 09:22:00;;;;;;;1.67;1.57;;;;;;;21.00;68.94;97017.13;5015067;28;20208;-64
2023/07/13 09:24:36;;;;;;;1.63;1.53;;;;;;;21.20;69.07;97023.75;5022326;28;20236;-66
2023/07/13 09:27:10;;;;;;;1.73;1.63;;;;;;;21.39;71.73;97021.50;5015607;28;20200;-64
2023/07/13 09:29:44;;;;;;;1.43;1.30;;;;;;;21.38;61.24;97023.34;5015134;28;20295;-65
2023/07/13 09:32:13;;;;;;;3.60;2.93;;;;;;;21.55;61.23;97022.41;5017587;28;20295;-64
2023/07/13 09:34:41;;;;;;;3.73;1.73;;;;;;;21.71;59.20;97034.16;5019559;28;20239;-64
2023/07/13 09:37:08;;;;;;;2.23;1.60;;;;;;;21.80;59.74;97034.47;5015894;28;20688;-64
2023/07/13 09:39:38;;;;;;;1.60;1.50;;;;;;;21.98;62.18;97028.63;5018577;28;20209;-65
2023/07/13 09:42:13;;;;;;;1.53;1.40;;;;;;;21.51;63.36;97035.59;5015788;28;20821;-67
2023/07/13 09:44:52;;;;;;;2.80;2.13;;;;;;;21.61;63.95;97029.47;5017248;28;20311;-64
2023/07/13 09:47:23;;;;;;;4.23;1.97;;;;;;;21.37;63.73;97027.13;5015406;28;20311;-66
2023/07/13 09:49:55;;;;;;;2.77;1.90;;;;;;;21.72;62.73;97026.84;5018889;28;20224;-64
2023/07/13 09:52:27;;;;;;;1.57;1.30;;;;;;;21.94;61.58;97026.72;5017517;28;21070;-65
2023/07/13 09:54:58;;;;;;;2.23;1.60;;;;;;;22.20;59.58;97034.94;5015350;28;20950;-65
2023/07/13 09:57:28;;;;;;;4.00;1.80;;;;;;;22.32;60.04;97023.94;5016984;28;20220;-65
2023/07/13 10:00:23;;;;;;;3.03;2.43;;;;;;;22.40;59.99;97026.13;5017133;28;20205;-65
2023/07/13 10:03:00;;;;;;;4.63;2.73;;;;;;;22.43;60.37;97038.28;5016255;28;20880;-64
2023/07/13 10:05:28;;;;;;;1.47;1.30;;;;;;;22.51;57.16;97025.09;5014556;28;20320;-64
2023/07/13 10:07:56;;;;;;;3.30;1.30;;;;;;;22.83;58.70;97026.81;5018833;28;20335;-64
2023/07/13 10:10:24;;;;;;;2.17;1.70;;;;;;;22.81;55.50;97028.97;5017127;28;20686;-63
2023/07/13 10:12:52;;;;;;;5.03;1.90;;;;;;;22.82;56.62;97038.69;5014626;28;20283;-66
2023/07/13 10:15:23;;;;;;;2.90;1.70;;;;;;;22.87;56.61;97035.19;5015513;28;20354;-64
2023/07/13 10:17:53;;;;;;;2.13;1.90;;;;;;;23.34;54.56;97033.38;5015120;28;20270;-64
2023/07/13 10:20:21;;;;;;;1.93;1.83;;;;;;;23.63;52.60;97037.41;5013939;28;20192;-67
2023/07/13 10:22:52;;;;;;;3.07;1.83;;;;;;;23.99;55.95;97035.41;5016091;28;20299;-64
2023/07/13 10:25:23;;;;;;;2.43;1.80;;;;;;;23.70;52.57;97037.94;5018992;28;20740;-66
2023/07/13 10:27:52;;;;;;;2.87;1.37;;;;;;;23.52;52.90;97050.13;5017479;28;20745;-64
2023/07/13 10:30:25;;;;;;;3.13;1.77;;;;;;;23.23;49.89;97040.63;5017126;28;20615;-64
2023/07/13 10:32:53;;;;;;;1.77;1.60;;;;;;;22.99;51.74;97024.94;5019724;28;20588;-64
2023/07/13 10:35:22;;;;;;;1.40;1.30;;;;;;;22.93;52.49;97049.53;5015689;28;20235;-65
2023/07/13 10:37:53;;;;;;;4.63;1.70;;;;;;;23.36;53.63;97035.78;5016626;28;20201;-65
2023/07/13 10:40:29;;;;;;;1.90;1.80;;;;;;;23.06;53.20;97037.38;5017966;28;20714;-65
2023/07/13 10:42:58;;;;;;;2.90;1.60;;;;;;;23.22;52.02;97036.31;5017155;28;20232;-65
2023/07/13 10:45:34;;;;;;;1.30;1.27;;;;;;;23.06;51.44;97043.59;5013699;28;20248;-66
2023/07/13 10:48:02;;;;;;;1.47;1.37;;;;;;;22.46;54.01;97041.28;5014828;28;20204;-65
2023/07/13 10:50:31;;;;;;;3.60;1.83;;;;;;;22.18;55.25;97051.41;5015566;28;20216;-66
2023/07/13 10:53:03;;;;;;;2.63;1.83;;;;;;;22.29;56.78;97041.44;5018127;28;20738;-65
2023/07/13 10:55:39;;;;;;;2.87;1.50;;;;;;;22.12;55.04;97055.97;5011293;28;21042;-65
2023/07/13 10:58:16;;;;;;;2.53;1.57;;;;;;;22.18;59.97;97043.31;5017260;28;20552;-66
2023/07/13 11:00:49;;;;;;;2.13;1.57;;;;;;;22.29;53.09;97037.97;5015729;28;20239;-63
2023/07/13 11:03:18;;;;;;;2.10;1.57;;;;;;;22.30;53.23;97031.47;5006176;28;20250;-64
2023/07/13 11:05:51;;;;;;;1.90;1.50;;;;;;;22.04;53.39;97044.84;5013452;28;20267;-64
2023/07/13 11:08:22;;;;;;;1.47;1.37;;;;;;;22.46;53.95;97037.78;5013628;28;20208;-65
2023/07/13 11:10:52;;;;;;;1.47;1.37;;;;;;;22.67;54.43;97031.34;5015140;28;20196;-64
2023/07/13 11:13:57;;;;;;;4.43;1.50;;;;;;;22.89;52.30;97033.03;5007879;28;20331;-65
2023/07/13 11:16:38;;;;;;;1.83;1.73;;;;;;;22.87;49.51;97042.47;4995984;28;20220;-64
2023/07/13 11:19:39;;;;;;;1.90;1.80;;;;;;;22.78;50.17;97043.00;5008911;28;20212;-65
2023/07/13 11:22:16;;;;;;;1.20;1.10;;;;;;;22.79;51.55;97035.72;5015193;28;20238;-64
2023/07/13 11:24:52;;;;;;;2.90;1.47;;;;;;;22.93;49.43;97027.91;5017346;28;20231;-64
2023/07/13 11:27:26;;;;;;;3.33;1.60;;;;;;;23.02;48.83;97025.47;5010812;28;20200;-63
2023/07/13 11:29:53;;;;;;;2.50;1.57;;;;;;;23.00;49.79;97025.75;5015737;28;20239;-65
2023/07/13 11:32:26;;;;;;;1.10;1.10;;;;;;;23.07;49.65;97011.97;5016875;28;20331;-63
2023/07/13 11:34:55;;;;;;;3.90;1.60;;;;;;;23.05;47.48;97017.66;5014652;28;20228;-67
2023/07/13 11:37:22;;;;;;;2.60;1.63;;;;;;;23.10;46.48;97011.44;5012429;28;20291;-64
2023/07/13 11:39:52;;;;;;;1.57;1.43;;;;;;;23.34;47.20;97033.38;5013960;28;20235;-64